Terminal Aerodrome Forecast
Issued by NWS King Salmon, AK

Home | Current Version | Previous Version | Text Only | Print | Product List | Glossary On
Versions: 1 2 3 4 5 6 7 8 9 10 11 12 13 14 15 16 17 18 19 20 21 22 23 24 25 26 27 28
000
FTAK31 PANC 082340
TAFAKN
TAF
PAKN 082340Z 0900/0924 01012KT P6SM FEW090 SCT150
     FM090200 01010KT P6SM SCT080 BKN100
     FM091200 36010KT P6SM VCSH BKN035 OVC050
     FM092000 35010KT P6SM -SHSN BKN025 OVC040=

USA.gov is the U.S. government's official web portal to all federal, state and local government web resources and services.